Time;durP1;ratioP1;P1;durP2;ratioP2;P2;SDS_P1;SDS_P2;PMS_P1;PMS_P2;Temp;Humidity;BMP_temperature;BMP_pressure;BME280_temperature;BME280_humidity;BME280_pressure;Samples;Min_cycle;Max_cycle;Signal;HPM_P1;HPM_P2
2023/06/12 00:02:13;;;;;;;696.23;638.23;;;;;;;;;;4999279;28;20300;-59
2023/06/12 00:04:39;;;;;;;710.83;652.40;;;;;;;;;;4999289;28;20336;-59
2023/06/12 00:07:04;;;;;;;698.37;640.23;;;;;;;;;;4999420;28;20137;-59
2023/06/12 00:09:30;;;;;;;697.47;639.47;;;;;;;;;;4999241;28;20033;-59
2023/06/12 00:11:55;;;;;;;701.47;643.03;;;;;;;;;;4998461;28;20045;-59
2023/06/12 00:14:21;;;;;;;705.00;646.50;;;;;;;;;;4999638;28;20083;-60
2023/06/12 00:16:47;;;;;;;708.90;650.60;;;;;;;;;;4998843;28;20125;-60
2023/06/12 00:19:13;;;;;;;694.13;636.30;;;;;;;;;;4999084;28;20045;-60
2023/06/12 00:21:39;;;;;;;706.27;647.73;;;;;;;;;;4998643;28;20291;-60
2023/06/12 00:24:08;;;;;;;705.23;646.57;;;;;;;;;;4998550;28;20125;-60
2023/06/12 00:26:34;;;;;;;715.07;656.43;;;;;;;;;;4998023;28;20779;-59
2023/06/12 00:28:59;;;;;;;710.60;652.40;;;;;;;;;;4999231;28;20323;-60
2023/06/12 00:31:25;;;;;;;714.93;656.23;;;;;;;;;;5013363;28;20511;-60
2023/06/12 00:33:51;;;;;;;705.97;647.77;;;;;;;;;;4998617;28;20028;-60
2023/06/12 00:36:16;;;;;;;713.23;654.97;;;;;;;;;;4999380;28;20042;-61
2023/06/12 00:38:41;;;;;;;706.10;648.03;;;;;;;;;;4987647;28;20611;-60
2023/06/12 00:41:07;;;;;;;707.77;649.53;;;;;;;;;;4998317;28;20045;-60
2023/06/12 00:43:33;;;;;;;710.83;652.47;;;;;;;;;;4998468;28;20037;-60
2023/06/12 00:45:59;;;;;;;703.63;645.40;;;;;;;;;;4990817;28;20136;-61
2023/06/12 00:48:25;;;;;;;707.87;649.60;;;;;;;;;;5002572;28;20326;-60
2023/06/12 00:50:52;;;;;;;702.87;644.43;;;;;;;;;;5001572;28;20049;-60
2023/06/12 00:53:18;;;;;;;708.03;649.77;;;;;;;;;;4993030;28;20045;-60
2023/06/12 00:55:43;;;;;;;710.03;651.80;;;;;;;;;;4992481;28;20288;-60
2023/06/12 00:58:09;;;;;;;706.90;648.57;;;;;;;;;;5003509;28;20038;-59
2023/06/12 01:00:38;;;;;;;710.30;652.00;;;;;;;;;;5001831;28;20038;-60
2023/06/12 01:03:05;;;;;;;704.63;646.13;;;;;;;;;;5002252;28;20111;-60
2023/06/12 01:05:34;;;;;;;703.50;645.00;;;;;;;;;;5001496;28;20320;-60
2023/06/12 01:08:01;;;;;;;707.50;649.13;;;;;;;;;;5017067;28;20300;-60
2023/06/12 01:10:36;;;;;;;703.83;645.30;;;;;;;;;;5001380;28;20281;-60
2023/06/12 01:13:03;;;;;;;695.33;636.93;;;;;;;;;;5001540;28;20389;-60
2023/06/12 01:15:29;;;;;;;696.53;638.43;;;;;;;;;;5008023;28;20289;-60
2023/06/12 01:17:54;;;;;;;693.73;635.87;;;;;;;;;;5002426;28;20389;-60
2023/06/12 01:20:20;;;;;;;698.23;639.90;;;;;;;;;;5000470;28;20050;-58
2023/06/12 01:22:49;;;;;;;693.93;635.73;;;;;;;;;;5000404;28;20045;-60
2023/06/12 01:25:35;;;;;;;692.63;634.70;;;;;;;;;;4990961;28;20026;-60
2023/06/12 01:28:21;;;;;;;691.53;633.60;;;;;;;;;;5016675;28;20686;-60
2023/06/12 01:30:55;;;;;;;683.20;625.50;;;;;;;;;;4991788;28;20429;-59
2023/06/12 01:33:30;;;;;;;683.60;625.77;;;;;;;;;;5000497;28;20368;-60
2023/06/12 01:35:58;;;;;;;692.07;634.03;;;;;;;;;;4999451;28;20288;-61
2023/06/12 01:38:27;;;;;;;676.27;618.50;;;;;;;;;;4990584;28;20329;-59
2023/06/12 01:40:53;;;;;;;680.50;622.53;;;;;;;;;;5001434;28;20281;-60
2023/06/12 01:43:21;;;;;;;680.43;622.57;;;;;;;;;;5007285;28;21191;-61
2023/06/12 01:45:47;;;;;;;682.73;625.10;;;;;;;;;;4999066;28;20311;-61
2023/06/12 01:48:14;;;;;;;669.33;611.93;;;;;;;;;;5001036;28;20612;-59
2023/06/12 01:50:40;;;;;;;671.70;614.33;;;;;;;;;;5016390;28;20399;-59
2023/06/12 01:53:07;;;;;;;689.00;630.83;;;;;;;;;;5016442;28;20285;-59
2023/06/12 01:55:34;;;;;;;672.13;614.57;;;;;;;;;;4999098;28;20296;-60
2023/06/12 01:58:00;;;;;;;677.67;620.13;;;;;;;;;;5000686;28;20295;-60
2023/06/12 02:00:55;;;;;;;660.50;603.35;;;;;;;;;;4969401;28;20106;-60
2023/06/12 02:03:24;;;;;;;673.83;616.17;;;;;;;;;;4971877;28;20062;-59
2023/06/12 02:05:50;;;;;;;673.13;615.27;;;;;;;;;;4955509;28;20302;-60
2023/06/12 02:08:15;;;;;;;670.03;612.57;;;;;;;;;;4955714;28;20300;-62
2023/06/12 02:10:41;;;;;;;664.60;607.03;;;;;;;;;;4953866;28;20823;-60
2023/06/12 02:13:06;;;;;;;664.33;606.83;;;;;;;;;;4970988;28;20568;-60
2023/06/12 02:15:32;;;;;;;654.27;596.90;;;;;;;;;;4968552;28;20544;-60
2023/06/12 02:17:59;;;;;;;653.40;596.13;;;;;;;;;;4962727;28;20042;-60
2023/06/12 02:20:24;;;;;;;649.13;591.60;;;;;;;;;;4968299;28;20692;-63
2023/06/12 02:22:53;;;;;;;646.33;588.87;;;;;;;;;;4968922;28;20058;-60
2023/06/12 02:25:18;;;;;;;642.63;585.37;;;;;;;;;;4967340;28;20597;-60
2023/06/12 02:27:44;;;;;;;650.37;592.77;;;;;;;;;;4970848;28;20521;-59
2023/06/12 02:30:10;;;;;;;632.57;575.97;;;;;;;;;;4944594;28;20292;-60
2023/06/12 02:32:36;;;;;;;652.97;595.37;;;;;;;;;;4969349;28;20100;-59
2023/06/12 02:35:02;;;;;;;653.33;595.80;;;;;;;;;;4955068;28;20691;-59
2023/06/12 02:37:28;;;;;;;635.23;578.47;;;;;;;;;;4961934;28;20045;-60
2023/06/12 02:39:54;;;;;;;647.07;590.03;;;;;;;;;;5000373;28;20276;-60
2023/06/12 02:42:20;;;;;;;645.17;588.13;;;;;;;;;;4991581;28;20435;-60
2023/06/12 02:44:45;;;;;;;653.43;596.13;;;;;;;;;;4999443;28;20063;-59
2023/06/12 02:47:11;;;;;;;638.87;581.67;;;;;;;;;;5001178;28;20140;-59
2023/06/12 02:49:44;;;;;;;639.43;582.37;;;;;;;;;;4999925;28;20044;-60
2023/06/12 02:52:12;;;;;;;638.33;581.43;;;;;;;;;;5001384;28;20619;-63
2023/06/12 02:54:38;;;;;;;636.17;579.53;;;;;;;;;;4990107;28;20589;-60
2023/06/12 02:57:03;;;;;;;646.77;589.43;;;;;;;;;;5002238;28;20037;-60
2023/06/12 02:59:29;;;;;;;643.77;586.63;;;;;;;;;;5000394;28;20129;-60
2023/06/12 03:01:59;;;;;;;629.67;572.67;;;;;;;;;;4992329;28;20037;-60
2023/06/12 03:04:44;;;;;;;634.77;577.50;;;;;;;;;;5014467;28;20316;-59
2023/06/12 03:07:12;;;;;;;636.33;579.30;;;;;;;;;;4990884;28;20293;-60
2023/06/12 03:09:38;;;;;;;642.00;585.07;;;;;;;;;;5003764;28;20268;-60
2023/06/12 03:12:05;;;;;;;633.27;576.60;;;;;;;;;;4999034;28;20302;-60
2023/06/12 03:14:33;;;;;;;635.87;578.97;;;;;;;;;;5005810;28;20760;-60
2023/06/12 03:16:59;;;;;;;635.27;578.37;;;;;;;;;;5000098;28;20280;-60
2023/06/12 03:19:25;;;;;;;640.87;584.00;;;;;;;;;;5000149;28;20288;-60
2023/06/12 03:21:50;;;;;;;644.43;587.10;;;;;;;;;;5006910;28;20085;-60
2023/06/12 03:24:16;;;;;;;639.60;582.17;;;;;;;;;;4989755;28;20209;-60
2023/06/12 03:26:42;;;;;;;636.47;579.67;;;;;;;;;;4990146;28;20571;-60
2023/06/12 03:29:08;;;;;;;641.57;584.73;;;;;;;;;;5015125;28;20040;-60
2023/06/12 03:31:33;;;;;;;644.30;587.10;;;;;;;;;;4999623;28;20026;-60
2023/06/12 03:34:00;;;;;;;643.27;586.43;;;;;;;;;;5006893;28;20481;-59
2023/06/12 03:36:28;;;;;;;647.07;590.07;;;;;;;;;;4987359;28;20748;-60
2023/06/12 03:38:55;;;;;;;639.73;582.77;;;;;;;;;;4981480;28;20133;-60
2023/06/12 03:41:22;;;;;;;635.40;578.70;;;;;;;;;;4999179;28;20273;-60
2023/06/12 03:43:50;;;;;;;627.07;570.53;;;;;;;;;;4989218;28;20832;-60
2023/06/12 03:46:16;;;;;;;626.13;569.53;;;;;;;;;;4989208;28;20296;-61
2023/06/12 03:48:42;;;;;;;630.63;573.93;;;;;;;;;;4989228;28;20428;-60
2023/06/12 03:51:07;;;;;;;628.13;571.43;;;;;;;;;;5005049;28;20042;-60
2023/06/12 03:53:33;;;;;;;624.27;568.00;;;;;;;;;;4999026;28;20488;-60
2023/06/12 03:55:59;;;;;;;634.60;577.67;;;;;;;;;;5014457;28;20046;-60
2023/06/12 03:58:26;;;;;;;633.90;577.30;;;;;;;;;;5013710;28;20065;-60
2023/06/12 04:00:52;;;;;;;643.57;586.37;;;;;;;;;;4998750;28;20364;-60
2023/06/12 04:03:20;;;;;;;649.00;591.90;;;;;;;;;;4997699;28;20045;-60
2023/06/12 04:05:47;;;;;;;657.27;600.03;;;;;;;;;;4997430;28;20659;-60
2023/06/12 04:08:13;;;;;;;654.97;597.67;;;;;;;;;;5005616;28;20784;-60
2023/06/12 04:10:38;;;;;;;667.23;609.87;;;;;;;;;;4996746;28;20880;-60
2023/06/12 04:13:05;;;;;;;683.63;625.70;;;;;;;;;;4996972;28;20048;-60
2023/06/12 04:15:30;;;;;;;675.40;617.53;;;;;;;;;;4998017;28;20512;-60
2023/06/12 04:17:57;;;;;;;680.80;622.97;;;;;;;;;;4980924;28;20116;-60
2023/06/12 04:20:23;;;;;;;686.23;628.50;;;;;;;;;;4995551;28;20499;-60
2023/06/12 04:22:49;;;;;;;688.17;630.30;;;;;;;;;;4996716;28;20317;-60
2023/06/12 04:25:15;;;;;;;685.53;627.27;;;;;;;;;;4998612;28;20921;-60
2023/06/12 04:27:42;;;;;;;686.33;628.53;;;;;;;;;;4996913;28;20038;-60
2023/06/12 04:30:09;;;;;;;696.43;638.50;;;;;;;;;;4997872;28;20042;-60
2023/06/12 04:32:35;;;;;;;698.53;640.13;;;;;;;;;;4989217;28;20850;-60
2023/06/12 04:35:01;;;;;;;696.63;638.63;;;;;;;;;;4980389;28;20304;-60
2023/06/12 04:37:27;;;;;;;705.93;647.73;;;;;;;;;;4998424;28;20042;-60
2023/06/12 04:39:53;;;;;;;702.27;644.20;;;;;;;;;;4998740;28;20283;-60
2023/06/12 04:42:18;;;;;;;705.53;647.43;;;;;;;;;;4998703;28;20037;-60
2023/06/12 04:44:46;;;;;;;715.57;657.03;;;;;;;;;;4994991;28;20185;-60
2023/06/12 04:47:17;;;;;;;715.00;656.87;;;;;;;;;;5006602;28;20084;-60
2023/06/12 04:49:45;;;;;;;717.33;659.23;;;;;;;;;;4998813;28;20370;-60
2023/06/12 04:52:12;;;;;;;724.93;666.33;;;;;;;;;;4990934;28;20761;-60
2023/06/12 04:54:44;;;;;;;725.90;667.03;;;;;;;;;;4988270;28;20293;-60
2023/06/12 04:57:13;;;;;;;731.53;672.97;;;;;;;;;;4997626;28;20853;-59
2023/06/12 04:59:40;;;;;;;734.97;676.50;;;;;;;;;;4997619;28;20284;-59
2023/06/12 05:02:09;;;;;;;720.13;661.90;;;;;;;;;;4989238;28;20687;-59
2023/06/12 05:04:38;;;;;;;724.50;666.17;;;;;;;;;;5013265;28;20045;-59
2023/06/12 05:07:04;;;;;;;722.37;664.07;;;;;;;;;;4988735;28;20291;-62
2023/06/12 05:09:30;;;;;;;737.60;679.00;;;;;;;;;;5013353;28;20368;-60
2023/06/12 05:11:56;;;;;;;738.80;680.10;;;;;;;;;;4998539;28;20287;-60
2023/06/12 05:14:22;;;;;;;744.17;685.23;;;;;;;;;;5013760;28;20030;-61
2023/06/12 05:16:48;;;;;;;743.83;684.93;;;;;;;;;;4997256;28;20116;-60
2023/06/12 05:19:15;;;;;;;746.53;687.70;;;;;;;;;;4996818;28;20420;-60
2023/06/12 05:21:43;;;;;;;761.67;702.20;;;;;;;;;;4999151;28;20469;-60
2023/06/12 05:24:08;;;;;;;774.03;713.93;;;;;;;;;;4997423;28;20041;-60
2023/06/12 05:26:34;;;;;;;793.57;733.43;;;;;;;;;;4985935;28;20304;-60
2023/06/12 05:29:01;;;;;;;788.77;728.97;;;;;;;;;;4997886;28;20034;-60
2023/06/12 05:31:28;;;;;;;802.27;742.03;;;;;;;;;;4998629;28;20042;-60
2023/06/12 05:33:55;;;;;;;803.20;743.00;;;;;;;;;;4992105;28;20041;-60
2023/06/12 05:36:20;;;;;;;793.67;733.60;;;;;;;;;;4990595;28;20037;-60
2023/06/12 05:38:46;;;;;;;801.70;741.37;;;;;;;;;;5001086;28;20432;-60
2023/06/12 05:41:13;;;;;;;799.57;739.20;;;;;;;;;;5001860;28;20037;-60
2023/06/12 05:43:39;;;;;;;808.13;747.30;;;;;;;;;;5001217;28;20281;-60
2023/06/12 05:46:04;;;;;;;804.83;744.43;;;;;;;;;;4990903;28;20129;-60
2023/06/12 05:48:33;;;;;;;800.33;740.07;;;;;;;;;;4999960;28;20045;-60
2023/06/12 05:50:58;;;;;;;807.00;746.47;;;;;;;;;;5000489;28;20030;-61
2023/06/12 05:53:25;;;;;;;804.47;744.27;;;;;;;;;;5000898;28;20349;-60
2023/06/12 05:55:50;;;;;;;792.83;732.80;;;;;;;;;;4999847;28;20041;-60
2023/06/12 05:58:16;;;;;;;798.30;738.37;;;;;;;;;;4999353;28;20504;-61
2023/06/12 06:00:43;;;;;;;814.97;754.23;;;;;;;;;;5001497;28;20377;-60
2023/06/12 06:03:20;;;;;;;821.60;760.93;;;;;;;;;;4990621;28;20096;-61
2023/06/12 06:05:46;;;;;;;831.03;770.03;;;;;;;;;;5000656;28;20436;-60
2023/06/12 06:08:12;;;;;;;819.43;758.47;;;;;;;;;;5014705;28;20042;-62
2023/06/12 06:10:43;;;;;;;830.23;769.23;;;;;;;;;;4984421;28;20091;-60
2023/06/12 06:13:08;;;;;;;832.87;771.97;;;;;;;;;;5001448;28;20081;-61
2023/06/12 06:15:34;;;;;;;829.13;767.77;;;;;;;;;;4989390;28;20037;-61
2023/06/12 06:18:00;;;;;;;821.47;760.90;;;;;;;;;;4992282;28;20058;-61
2023/06/12 06:20:26;;;;;;;828.43;767.63;;;;;;;;;;4990266;28;20116;-61
2023/06/12 06:22:52;;;;;;;830.27;769.17;;;;;;;;;;4984681;28;20049;-62
2023/06/12 06:25:18;;;;;;;847.00;785.43;;;;;;;;;;4984092;28;20052;-60
2023/06/12 06:27:44;;;;;;;846.73;785.33;;;;;;;;;;5000798;28;20042;-61
2023/06/12 06:30:10;;;;;;;845.07;783.63;;;;;;;;;;4992167;28;20502;-61
2023/06/12 06:32:36;;;;;;;859.00;797.20;;;;;;;;;;5006548;28;20041;-62
2023/06/12 06:35:02;;;;;;;858.10;796.23;;;;;;;;;;5000099;28;20108;-61
2023/06/12 06:37:28;;;;;;;859.73;797.97;;;;;;;;;;5015401;28;20040;-61
2023/06/12 06:39:54;;;;;;;853.07;791.43;;;;;;;;;;5000580;28;20245;-61
2023/06/12 06:42:20;;;;;;;861.73;799.77;;;;;;;;;;5000336;28;20046;-62
2023/06/12 06:44:56;;;;;;;853.57;791.93;;;;;;;;;;4999297;28;20504;-61
2023/06/12 06:47:21;;;;;;;840.60;779.10;;;;;;;;;;5000867;28;20041;-60
2023/06/12 06:49:49;;;;;;;838.63;777.50;;;;;;;;;;4991866;28;20038;-62
2023/06/12 06:52:18;;;;;;;835.57;774.63;;;;;;;;;;4984095;28;20176;-64
2023/06/12 06:54:44;;;;;;;837.60;776.53;;;;;;;;;;5017051;28;20434;-63
2023/06/12 06:57:11;;;;;;;828.57;767.47;;;;;;;;;;4999282;28;20165;-64
2023/06/12 06:59:36;;;;;;;842.37;781.10;;;;;;;;;;5003455;28;20061;-63
2023/06/12 07:02:02;;;;;;;826.30;765.73;;;;;;;;;;5001320;28;20125;-63
2023/06/12 07:04:28;;;;;;;826.97;766.17;;;;;;;;;;5000280;28;20120;-61
2023/06/12 07:06:53;;;;;;;827.47;766.67;;;;;;;;;;4983427;28;20397;-64
2023/06/12 07:09:21;;;;;;;825.60;764.87;;;;;;;;;;5015813;28;20042;-64
2023/06/12 07:11:46;;;;;;;818.27;757.57;;;;;;;;;;4990936;28;20045;-63
2023/06/12 07:14:11;;;;;;;820.07;759.30;;;;;;;;;;5007308;28;20480;-63
2023/06/12 07:16:37;;;;;;;808.57;748.03;;;;;;;;;;4999710;28;20481;-64
2023/06/12 07:19:03;;;;;;;815.60;755.13;;;;;;;;;;5001040;28;20018;-63
2023/06/12 07:21:29;;;;;;;819.40;758.90;;;;;;;;;;5000112;28;20500;-65
2023/06/12 07:23:56;;;;;;;817.13;756.53;;;;;;;;;;4999050;28;20102;-63
2023/06/12 07:26:23;;;;;;;839.63;778.13;;;;;;;;;;4991528;28;20038;-63
2023/06/12 07:28:49;;;;;;;836.83;775.53;;;;;;;;;;4999765;28;20253;-64
2023/06/12 07:31:14;;;;;;;845.27;783.87;;;;;;;;;;4991528;28;20193;-64
2023/06/12 07:33:41;;;;;;;852.67;791.17;;;;;;;;;;5002563;28;20070;-64
2023/06/12 07:36:07;;;;;;;856.50;794.87;;;;;;;;;;5008739;28;20178;-64
2023/06/12 07:38:32;;;;;;;865.53;803.53;;;;;;;;;;4992082;28;20386;-63
2023/06/12 07:40:58;;;;;;;866.17;803.87;;;;;;;;;;4991708;28;20038;-63
2023/06/12 07:43:24;;;;;;;855.00;793.50;;;;;;;;;;4997439;28;20049;-61
2023/06/12 07:45:49;;;;;;;863.17;801.47;;;;;;;;;;4997872;28;20042;-62
2023/06/12 07:48:15;;;;;;;873.07;810.93;;;;;;;;;;4998541;28;20038;-63
2023/06/12 07:50:42;;;;;;;865.70;803.93;;;;;;;;;;4989768;28;20152;-63
2023/06/12 07:53:08;;;;;;;868.30;806.03;;;;;;;;;;5000605;28;20038;-62
2023/06/12 07:55:35;;;;;;;869.20;807.07;;;;;;;;;;4997685;28;20836;-62
2023/06/12 07:58:01;;;;;;;878.40;816.10;;;;;;;;;;4998701;28;20105;-66
2023/06/12 08:00:27;;;;;;;877.23;815.13;;;;;;;;;;4997910;28;20045;-62
2023/06/12 08:02:58;;;;;;;878.80;816.40;;;;;;;;;;4989679;28;20397;-62
2023/06/12 08:05:34;;;;;;;880.57;818.07;;;;;;;;;;4989068;28;20037;-61
2023/06/12 08:08:03;;;;;;;883.90;821.33;;;;;;;;;;4987615;28;20052;-65
2023/06/12 08:10:30;;;;;;;879.90;817.07;;;;;;;;;;4997836;28;20468;-64
2023/06/12 08:12:56;;;;;;;888.07;825.50;;;;;;;;;;5001052;28;20465;-63
2023/06/12 08:15:22;;;;;;;881.33;818.97;;;;;;;;;;4995094;28;20561;-63
2023/06/12 08:17:51;;;;;;;878.10;815.37;;;;;;;;;;5002635;28;20056;-63
2023/06/12 08:20:17;;;;;;;881.50;818.90;;;;;;;;;;4997330;28;20034;-63
2023/06/12 08:22:45;;;;;;;875.37;813.20;;;;;;;;;;4988143;28;20052;-63
2023/06/12 08:25:10;;;;;;;888.67;825.83;;;;;;;;;;4995086;28;20464;-62
2023/06/12 08:27:36;;;;;;;892.93;830.03;;;;;;;;;;4998520;28;20068;-62
2023/06/12 08:30:03;;;;;;;905.33;842.23;;;;;;;;;;4995408;28;20033;-63
2023/06/12 08:32:28;;;;;;;917.93;854.13;;;;;;;;;;4995939;28;20034;-63
2023/06/12 08:34:54;;;;;;;927.57;863.47;;;;;;;;;;4997585;28;20059;-63
2023/06/12 08:37:20;;;;;;;914.20;850.67;;;;;;;;;;4997756;28;20768;-63
2023/06/12 08:39:46;;;;;;;917.13;853.37;;;;;;;;;;4987811;28;20068;-63
2023/06/12 08:42:14;;;;;;;922.23;858.40;;;;;;;;;;4999340;28;20086;-63
2023/06/12 08:44:43;;;;;;;922.97;858.63;;;;;;;;;;4997541;28;20034;-64
2023/06/12 08:47:09;;;;;;;919.63;855.47;;;;;;;;;;4997398;28;20067;-65
2023/06/12 08:49:35;;;;;;;918.60;855.00;;;;;;;;;;4987587;28;20409;-66
2023/06/12 08:52:01;;;;;;;922.50;858.70;;;;;;;;;;4997989;28;20042;-65
2023/06/12 08:54:27;;;;;;;917.43;854.07;;;;;;;;;;4998857;28;20029;-65
2023/06/12 08:56:54;;;;;;;919.73;856.07;;;;;;;;;;4996064;28;20065;-61
2023/06/12 08:59:19;;;;;;;921.73;857.90;;;;;;;;;;4999425;28;20034;-65
2023/06/12 09:01:50;;;;;;;924.83;860.93;;;;;;;;;;4996669;28;20038;-62
2023/06/12 09:04:21;;;;;;;923.90;859.60;;;;;;;;;;4998804;28;20054;-62
2023/06/12 09:06:49;;;;;;;923.50;859.50;;;;;;;;;;5001906;28;20507;-62
2023/06/12 09:09:15;;;;;;;919.37;855.73;;;;;;;;;;5002661;28;20141;-62
2023/06/12 09:11:40;;;;;;;923.63;859.53;;;;;;;;;;5000249;28;20260;-62
2023/06/12 09:14:08;;;;;;;917.00;852.13;;;;;;;;;;4991735;28;20045;-62
2023/06/12 09:16:33;;;;;;;913.10;848.43;;;;;;;;;;5019714;28;20489;-62
2023/06/12 09:19:00;;;;;;;919.90;856.10;;;;;;;;;;5000353;28;20053;-62
2023/06/12 09:21:25;;;;;;;907.03;843.47;;;;;;;;;;5001388;28;20038;-62
2023/06/12 09:23:55;;;;;;;911.60;848.23;;;;;;;;;;5000627;28;20026;-61
2023/06/12 09:26:22;;;;;;;909.67;846.37;;;;;;;;;;5001245;28;20037;-62
2023/06/12 09:28:52;;;;;;;902.90;839.90;;;;;;;;;;5001565;28;20441;-62
2023/06/12 09:31:17;;;;;;;900.47;837.57;;;;;;;;;;5000728;28;20614;-64
2023/06/12 09:33:44;;;;;;;903.70;840.70;;;;;;;;;;5001369;28;20544;-62
2023/06/12 09:36:11;;;;;;;896.97;834.20;;;;;;;;;;5002101;28;20053;-61
2023/06/12 09:38:36;;;;;;;903.23;840.27;;;;;;;;;;5016559;28;20026;-62
2023/06/12 09:41:03;;;;;;;887.53;824.97;;;;;;;;;;5002931;28;20396;-61
2023/06/12 09:43:30;;;;;;;879.20;816.77;;;;;;;;;;4991150;28;20120;-61
2023/06/12 09:45:57;;;;;;;888.80;826.33;;;;;;;;;;5002580;28;20034;-62
2023/06/12 09:48:23;;;;;;;897.53;834.60;;;;;;;;;;5000336;28;20112;-62
2023/06/12 09:50:48;;;;;;;897.57;834.67;;;;;;;;;;5002567;28;20148;-61
2023/06/12 09:53:17;;;;;;;906.00;842.90;;;;;;;;;;4993543;28;20038;-62
2023/06/12 09:55:46;;;;;;;904.77;841.70;;;;;;;;;;5004703;28;20093;-62
2023/06/12 09:58:13;;;;;;;912.23;849.03;;;;;;;;;;4994567;28;20045;-62
2023/06/12 10:00:38;;;;;;;913.00;849.67;;;;;;;;;;5003132;28;20199;-61
2023/06/12 10:03:06;;;;;;;911.93;848.47;;;;;;;;;;5001577;28;20041;-62
2023/06/12 10:05:35;;;;;;;917.63;854.33;;;;;;;;;;5001136;28;20464;-62
2023/06/12 10:08:01;;;;;;;925.03;861.13;;;;;;;;;;5000251;28;20168;-62
2023/06/12 10:10:27;;;;;;;916.53;852.40;;;;;;;;;;5000243;28;20455;-62
2023/06/12 10:12:52;;;;;;;914.83;851.37;;;;;;;;;;5001821;28;20049;-62
2023/06/12 10:15:19;;;;;;;913.50;850.17;;;;;;;;;;4999976;28;20034;-61
2023/06/12 10:17:45;;;;;;;911.73;848.47;;;;;;;;;;5000657;28;20030;-62
2023/06/12 10:20:11;;;;;;;900.90;838.03;;;;;;;;;;5015628;28;20038;-62
2023/06/12 10:22:37;;;;;;;909.13;845.93;;;;;;;;;;5000216;28;20041;-60
2023/06/12 10:25:03;;;;;;;914.87;851.63;;;;;;;;;;5001165;28;20324;-63
2023/06/12 10:27:29;;;;;;;921.40;857.77;;;;;;;;;;4996193;28;20193;-61
2023/06/12 10:29:58;;;;;;;923.40;859.50;;;;;;;;;;5000503;28;20041;-61
2023/06/12 10:32:24;;;;;;;924.33;860.47;;;;;;;;;;4990722;28;20112;-61
2023/06/12 10:34:54;;;;;;;935.73;871.67;;;;;;;;;;5000711;28;20038;-62
2023/06/12 10:37:22;;;;;;;949.33;884.60;;;;;;;;;;4989133;28;20453;-60
2023/06/12 10:39:49;;;;;;;947.13;882.47;;;;;;;;;;5000013;28;20034;-61
2023/06/12 10:42:14;;;;;;;929.43;865.17;;;;;;;;;;4999125;28;20037;-61
2023/06/12 10:44:46;;;;;;;912.90;849.57;;;;;;;;;;4999528;28;20062;-61
2023/06/12 10:47:19;;;;;;;922.93;859.17;;;;;;;;;;5001156;28;20095;-62
2023/06/12 10:49:54;;;;;;;922.27;858.27;;;;;;;;;;5000440;28;20385;-68
2023/06/12 10:52:20;;;;;;;929.67;865.60;;;;;;;;;;5000631;28;20041;-65
2023/06/12 10:54:46;;;;;;;944.07;879.60;;;;;;;;;;5000697;28;20025;-63
2023/06/12 10:57:11;;;;;;;957.67;892.70;;;;;;;;;;5001071;28;20141;-62
2023/06/12 10:59:37;;;;;;;958.00;892.87;;;;;;;;;;4999787;28;20034;-64
2023/06/12 11:02:03;;;;;;;968.07;902.70;;;;;;;;;;4999415;28;20473;-63
2023/06/12 11:04:34;;;;;;;956.90;892.13;;;;;;;;;;4999423;28;20057;-65
2023/06/12 11:07:00;;;;;;;954.23;889.60;;;;;;;;;;5000585;28;20484;-63
2023/06/12 11:09:26;;;;;;;950.93;886.13;;;;;;;;;;4999828;28;20046;-63
2023/06/12 11:11:51;;;;;;;955.10;890.33;;;;;;;;;;5000013;28;20089;-63
2023/06/12 11:14:17;;;;;;;958.13;892.93;;;;;;;;;;4999707;28;20606;-63
2023/06/12 11:16:46;;;;;;;957.73;892.60;;;;;;;;;;4999999;28;20507;-63
2023/06/12 11:19:11;;;;;;;955.57;890.47;;;;;;;;;;4999919;28;20035;-63
2023/06/12 11:21:37;;;;;;;949.30;884.20;;;;;;;;;;5000748;28;20030;-64
2023/06/12 11:24:11;;;;;;;956.57;891.57;;;;;;;;;;4990785;28;20107;-63
2023/06/12 11:26:36;;;;;;;956.72;891.60;;;;;;;;;;4972666;28;20037;-64
2023/06/12 11:29:12;;;;;;;959.07;893.83;;;;;;;;;;4989553;28;20046;-65
2023/06/12 11:31:37;;;;;;;957.27;892.10;;;;;;;;;;4999131;28;20042;-63
2023/06/12 11:34:04;;;;;;;965.37;899.93;;;;;;;;;;4999065;28;20461;-64
2023/06/12 11:36:29;;;;;;;974.60;908.87;;;;;;;;;;5006484;28;20590;-62
2023/06/12 11:38:54;;;;;;;976.43;910.17;;;;;;;;;;5014921;28;20038;-68
2023/06/12 11:41:20;;;;;;;980.20;914.03;;;;;;;;;;5000333;28;20251;-69
2023/06/12 11:43:45;;;;;;;961.33;895.93;;;;;;;;;;4999283;28;20465;-68
2023/06/12 11:46:11;;;;;;;957.77;892.20;;;;;;;;;;4998020;28;20077;-69
2023/06/12 11:48:36;;;;;;;974.90;908.73;;;;;;;;;;4989458;28;20033;-69
2023/06/12 11:51:02;;;;;;;971.03;904.80;;;;;;;;;;4999908;28;20034;-68
2023/06/12 11:53:30;;;;;;;967.33;900.93;;;;;;;;;;5000271;28;20033;-68
2023/06/12 11:56:00;;;;;;;973.03;907.00;;;;;;;;;;4999259;28;20091;-69
2023/06/12 11:58:32;;;;;;;976.60;910.60;;;;;;;;;;5001355;28;20128;-69
2023/06/12 12:01:08;;;;;;;973.80;907.83;;;;;;;;;;4988559;28;20503;-68
2023/06/12 12:03:37;;;;;;;967.37;901.83;;;;;;;;;;5000314;28;20062;-64
2023/06/12 12:06:02;;;;;;;959.27;893.40;;;;;;;;;;4998011;28;20067;-67
2023/06/12 12:08:28;;;;;;;957.93;892.23;;;;;;;;;;4999447;28;20124;-68
2023/06/12 12:10:53;;;;;;;969.23;903.90;;;;;;;;;;4999112;28;20037;-65
2023/06/12 12:13:19;;;;;;;976.97;910.50;;;;;;;;;;4999426;28;20048;-66
2023/06/12 12:15:45;;;;;;;981.23;914.83;;;;;;;;;;4998534;28;20581;-60
2023/06/12 12:18:13;;;;;;;982.93;916.50;;;;;;;;;;5000323;28;20030;-63
2023/06/12 12:20:38;;;;;;;990.67;923.87;;;;;;;;;;4998826;28;20139;-61
2023/06/12 12:23:10;;;;;;;1002.30;935.50;;;;;;;;;;4999673;28;20404;-62
2023/06/12 12:25:36;;;;;;;1003.20;936.13;;;;;;;;;;4998665;28;20041;-62
2023/06/12 12:28:03;;;;;;;1000.33;933.50;;;;;;;;;;4999615;28;20146;-62
2023/06/12 12:30:29;;;;;;;995.60;928.30;;;;;;;;;;4999320;28;20034;-62
2023/06/12 12:32:56;;;;;;;978.97;912.50;;;;;;;;;;4999204;28;20029;-62
2023/06/12 12:35:22;;;;;;;978.83;912.67;;;;;;;;;;4997627;28;20034;-62
2023/06/12 12:37:49;;;;;;;986.53;919.47;;;;;;;;;;5012491;28;20057;-62
2023/06/12 12:40:15;;;;;;;985.17;918.77;;;;;;;;;;4996240;28;20037;-62
2023/06/12 12:42:41;;;;;;;982.97;915.83;;;;;;;;;;4997330;28;20390;-63
2023/06/12 12:45:08;;;;;;;995.93;928.97;;;;;;;;;;4997629;28;20038;-62
2023/06/12 12:47:34;;;;;;;997.10;930.10;;;;;;;;;;4998207;28;20564;-62
2023/06/12 12:50:00;;;;;;;991.40;924.90;;;;;;;;;;4997074;28;20049;-62
2023/06/12 12:52:25;;;;;;;997.20;930.47;;;;;;;;;;4997664;28;20034;-62
2023/06/12 12:54:51;;;;;;;1003.23;936.50;;;;;;;;;;4998550;28;20038;-64
2023/06/12 12:57:17;;;;;;;1003.93;937.17;;;;;;;;;;4998418;28;20065;-63
2023/06/12 12:59:44;;;;;;;997.07;930.73;;;;;;;;;;4998701;28;20515;-63
2023/06/12 13:02:10;;;;;;;994.67;928.60;;;;;;;;;;4999192;28;20562;-63
2023/06/12 13:04:36;;;;;;;971.97;908.43;;;;;;;;;;4998965;28;20054;-64
2023/06/12 13:07:01;;;;;;;967.33;903.33;;;;;;;;;;4998948;28;20057;-67
2023/06/12 13:09:27;;;;;;;965.73;901.47;;;;;;;;;;4998439;28;20500;-66
2023/06/12 13:11:52;;;;;;;960.20;896.17;;;;;;;;;;4997436;28;20069;-66
2023/06/12 13:14:18;;;;;;;956.17;892.47;;;;;;;;;;4995996;28;20054;-65
2023/06/12 13:16:43;;;;;;;944.33;880.73;;;;;;;;;;4986825;28;20042;-65
2023/06/12 13:19:09;;;;;;;946.00;882.30;;;;;;;;;;4999296;28;20062;-66
2023/06/12 13:21:34;;;;;;;950.27;886.43;;;;;;;;;;4989816;28;20044;-65
2023/06/12 13:24:00;;;;;;;959.43;895.47;;;;;;;;;;5000822;28;21052;-66
2023/06/12 13:26:26;;;;;;;960.43;896.07;;;;;;;;;;4999853;28;20045;-66
2023/06/12 13:28:52;;;;;;;974.77;910.17;;;;;;;;;;4999626;28;20481;-69
2023/06/12 13:31:18;;;;;;;982.33;917.33;;;;;;;;;;4996391;28;20034;-64
2023/06/12 13:33:43;;;;;;;981.00;916.00;;;;;;;;;;4999317;28;20491;-64
2023/06/12 13:36:09;;;;;;;980.97;915.87;;;;;;;;;;4997075;28;20108;-64
2023/06/12 13:38:34;;;;;;;979.60;915.07;;;;;;;;;;4998292;28;20030;-64
2023/06/12 13:41:00;;;;;;;986.60;921.80;;;;;;;;;;4997821;28;20034;-64
2023/06/12 13:43:26;;;;;;;987.07;922.17;;;;;;;;;;4998577;28;20315;-65
2023/06/12 13:45:55;;;;;;;971.53;907.20;;;;;;;;;;4998108;28;20108;-66
2023/06/12 13:48:21;;;;;;;977.83;912.93;;;;;;;;;;4998988;28;20107;-71
2023/06/12 13:50:46;;;;;;;978.03;913.27;;;;;;;;;;4997230;28;20496;-70